Time;durP1;ratioP1;P1;durP2;ratioP2;P2;SDS_P1;SDS_P2;PMS_P1;PMS_P2;Temp;Humidity;BMP_temperature;BMP_pressure;BME280_temperature;BME280_humidity;BME280_pressure;Samples;Min_cycle;Max_cycle;Signal;HPM_P1;HPM_P2
2022/10/29 00:01:47;;;;;;;8.98;6.63;;;;;;;22.17;42.96;96079.28;5026637;28;20090;-62
2022/10/29 00:04:12;;;;;;;8.80;6.43;;;;;;;22.16;42.45;96077.75;5026626;28;20060;-64
2022/10/29 00:06:38;;;;;;;8.82;6.72;;;;;;;21.92;42.33;96036.41;5008960;28;20045;-63
2022/10/29 00:09:03;;;;;;;9.65;6.50;;;;;;;20.53;42.46;95822.75;5026675;28;20050;-62
2022/10/29 00:11:29;;;;;;;10.02;6.80;;;;;;;22.17;42.25;96068.38;5026826;28;20053;-62
2022/10/29 00:13:56;;;;;;;10.10;6.65;;;;;;;22.15;42.54;96070.84;5026747;28;20818;-63
2022/10/29 00:16:23;;;;;;;9.50;6.85;;;;;;;22.17;42.53;96094.84;4993349;28;20034;-63
2022/10/29 00:18:49;;;;;;;9.45;6.72;;;;;;;22.15;42.47;96092.59;4992666;28;20059;-65
2022/10/29 00:21:16;;;;;;;8.48;6.53;;;;;;;22.15;42.27;96057.25;5026603;28;20455;-64
2022/10/29 00:23:41;;;;;;;9.30;6.30;;;;;;;22.12;42.43;96054.72;5008364;28;20049;-64
2022/10/29 00:26:07;;;;;;;10.25;7.07;;;;;;;20.94;42.30;95876.69;5026350;28;20470;-62
2022/10/29 00:28:32;;;;;;;9.80;6.45;;;;;;;22.13;42.34;96089.59;5025302;28;20040;-64
2022/10/29 00:31:04;;;;;;;9.10;6.53;;;;;;;22.12;42.38;96050.03;5027829;28;20030;-62
2022/10/29 00:33:30;;;;;;;10.50;6.68;;;;;;;22.12;42.41;96060.16;5026908;28;20038;-65
2022/10/29 00:36:00;;;;;;;9.40;6.78;;;;;;;22.11;42.45;96048.53;5025921;28;20623;-61
2022/10/29 00:38:26;;;;;;;9.85;6.53;;;;;;;22.09;42.18;96045.53;5025920;28;20053;-64
2022/10/29 00:40:51;;;;;;;10.27;6.45;;;;;;;21.70;42.41;95985.69;5026184;28;20123;-64
2022/10/29 00:43:18;;;;;;;8.38;5.78;;;;;;;22.10;42.13;96047.03;5007825;28;20099;-64
2022/10/29 00:45:50;;;;;;;11.30;6.65;;;;;;;22.10;42.47;96057.16;5008564;28;20054;-64
2022/10/29 00:48:15;;;;;;;9.80;6.85;;;;;;;22.09;42.49;96045.53;4975908;28;20552;-63
2022/10/29 00:50:42;;;;;;;9.35;6.43;;;;;;;22.09;42.38;96055.66;5026216;28;20437;-62
2022/10/29 00:53:07;;;;;;;9.48;6.75;;;;;;;22.08;42.46;96046.75;5007938;28;20041;-65
2022/10/29 00:55:33;;;;;;;8.88;6.32;;;;;;;22.06;42.50;96043.78;5006863;28;20080;-63
2022/10/29 00:57:59;;;;;;;9.13;6.82;;;;;;;21.98;42.25;96031.78;5026369;28;20510;-64
2022/10/29 01:00:25;;;;;;;8.73;5.95;;;;;;;22.06;42.36;96051.16;5026117;28;20501;-64
2022/10/29 01:02:50;;;;;;;9.40;6.60;;;;;;;22.07;42.61;96047.97;5027048;28;20052;-64
2022/10/29 01:05:18;;;;;;;9.45;6.63;;;;;;;22.04;42.45;96054.38;5026887;28;20513;-65
2022/10/29 01:07:44;;;;;;;8.23;5.60;;;;;;;21.49;42.22;95962.41;5008166;28;20029;-63
2022/10/29 01:10:10;;;;;;;9.48;6.22;;;;;;;21.24;42.50;95906.00;5008418;28;20036;-64
2022/10/29 01:12:59;;;;;;;9.82;6.63;;;;;;;21.89;42.20;96003.97;5025242;28;20210;-63
2022/10/29 01:15:35;;;;;;;9.85;6.20;;;;;;;21.88;42.45;96007.91;4991931;28;20056;-64
2022/10/29 01:18:09;;;;;;;9.18;6.07;;;;;;;22.04;42.34;96024.44;5007291;28;20045;-64
2022/10/29 01:20:35;;;;;;;8.20;6.07;;;;;;;20.83;42.27;95840.47;5024993;28;20068;-63
2022/10/29 01:23:38;;;;;;;9.73;6.13;;;;;;;22.03;42.66;96022.97;5024590;28;20505;-66
2022/10/29 01:26:22;;;;;;;8.90;6.10;;;;;;;22.01;42.46;96011.78;5023625;28;20506;-65
2022/10/29 01:29:21;;;;;;;9.20;5.70;;;;;;;22.01;42.17;96006.34;5021111;28;20037;-62
2022/10/29 01:31:46;;;;;;;7.67;5.70;;;;;;;21.99;43.23;96008.81;5025317;28;20029;-65
2022/10/29 01:34:37;;;;;;;8.25;6.22;;;;;;;21.96;42.54;96004.31;5025699;28;20322;-61
2022/10/29 01:37:05;;;;;;;9.50;6.32;;;;;;;22.01;42.49;96017.22;5010791;28;20399;-63
2022/10/29 01:39:33;;;;;;;7.07;5.57;;;;;;;21.99;42.50;96014.25;5025009;28;20174;-63
2022/10/29 01:42:11;;;;;;;8.15;5.65;;;;;;;21.99;42.74;96040.72;5007130;28;20049;-64
2022/10/29 01:44:40;;;;;;;10.00;6.03;;;;;;;22.00;42.40;96015.00;5007574;28;20037;-65
2022/10/29 01:47:13;;;;;;;7.43;5.80;;;;;;;21.98;42.44;96012.75;5005655;28;20049;-63
2022/10/29 01:49:41;;;;;;;9.43;6.07;;;;;;;21.96;42.83;96039.69;5006440;28;20092;-63
2022/10/29 01:52:08;;;;;;;8.40;5.85;;;;;;;20.88;42.25;95839.81;4992139;28;20037;-64
2022/10/29 01:54:33;;;;;;;7.60;5.53;;;;;;;21.95;42.45;96008.25;5015667;28;20089;-65
2022/10/29 01:56:59;;;;;;;7.18;5.40;;;;;;;21.94;42.55;96001.34;5007358;28;20064;-61
2022/10/29 01:59:28;;;;;;;8.68;5.63;;;;;;;21.92;42.54;96040.38;5025750;28;20099;-65
2022/10/29 02:02:31;;;;;;;7.18;5.53;;;;;;;21.93;42.50;96005.28;5007492;28;20127;-64
2022/10/29 02:05:06;;;;;;;8.63;5.38;;;;;;;21.93;42.34;95999.09;5024580;28;20613;-65
2022/10/29 02:07:43;;;;;;;6.07;5.00;;;;;;;21.93;42.45;96004.53;5023568;28;20048;-64
2022/10/29 02:10:26;;;;;;;8.02;5.78;;;;;;;21.89;42.33;96000.53;5008194;28;20041;-62
2022/10/29 02:12:52;;;;;;;7.65;5.93;;;;;;;21.95;42.51;96002.81;4991278;28;20517;-65
2022/10/29 02:15:39;;;;;;;9.27;5.88;;;;;;;20.76;42.28;95816.44;4991297;28;20057;-64
2022/10/29 02:18:06;;;;;;;8.50;5.57;;;;;;;21.93;42.58;96021.59;5024747;28;20041;-63
2022/10/29 02:20:31;;;;;;;7.65;5.68;;;;;;;21.93;42.51;95988.97;4990376;28;20045;-65
2022/10/29 02:22:57;;;;;;;7.53;5.20;;;;;;;20.66;42.50;95796.06;5006613;28;20037;-64
2022/10/29 02:25:22;;;;;;;7.45;5.28;;;;;;;21.91;42.48;95996.09;5024312;28;20051;-63
2022/10/29 02:27:47;;;;;;;8.70;6.18;;;;;;;21.91;42.37;96017.09;5024273;28;20048;-64
2022/10/29 02:30:13;;;;;;;6.82;5.25;;;;;;;21.91;42.37;96000.78;5024583;28;20049;-64
2022/10/29 02:32:39;;;;;;;6.35;5.13;;;;;;;21.91;42.45;96000.78;5006552;28;20054;-64
2022/10/29 02:35:05;;;;;;;7.72;4.90;;;;;;;21.91;42.54;95990.66;5023794;28;20038;-64
2022/10/29 02:37:30;;;;;;;7.38;4.90;;;;;;;21.91;42.30;95992.63;5006709;28;20064;-63
2022/10/29 02:39:55;;;;;;;7.28;5.45;;;;;;;21.82;42.41;95976.44;5024506;28;20057;-62
2022/10/29 02:42:21;;;;;;;6.80;5.15;;;;;;;21.82;42.42;95976.44;5008638;28;20132;-63
2022/10/29 02:44:46;;;;;;;6.95;5.30;;;;;;;21.89;42.58;95986.94;5006800;28;20092;-65
2022/10/29 02:47:12;;;;;;;6.75;4.90;;;;;;;21.89;42.46;95981.50;5006858;28;20083;-63
2022/10/29 02:49:37;;;;;;;6.78;4.82;;;;;;;21.90;42.26;95988.41;5006971;28;20283;-65
2022/10/29 02:52:03;;;;;;;7.32;4.95;;;;;;;21.87;42.48;95990.13;5007122;28;20482;-64
2022/10/29 02:54:28;;;;;;;7.22;5.07;;;;;;;21.89;42.45;95986.94;5004120;28;20060;-63
2022/10/29 02:56:54;;;;;;;7.88;4.97;;;;;;;20.56;42.29;95783.81;5024656;28;20056;-65
2022/10/29 02:59:19;;;;;;;6.28;4.55;;;;;;;21.72;42.45;95966.91;5024200;28;20049;-63
2022/10/29 03:01:44;;;;;;;7.65;5.35;;;;;;;21.87;42.31;95989.34;5024236;28;20056;-64
2022/10/29 03:04:10;;;;;;;7.30;4.88;;;;;;;21.87;42.34;95992.06;5024068;28;20532;-62
2022/10/29 03:06:36;;;;;;;7.07;4.82;;;;;;;21.79;42.31;95982.84;5006389;28;20518;-63
2022/10/29 03:09:02;;;;;;;6.68;4.60;;;;;;;21.84;42.97;95984.88;4988484;28;20111;-64
2022/10/29 03:11:27;;;;;;;6.40;4.68;;;;;;;21.37;42.45;95908.38;5006276;28;20143;-64
2022/10/29 03:13:52;;;;;;;6.72;4.43;;;;;;;21.45;42.57;95970.00;5025075;28;20519;-63
2022/10/29 03:16:18;;;;;;;7.00;4.40;;;;;;;21.77;42.35;96026.81;5024933;28;20037;-64
2022/10/29 03:18:43;;;;;;;6.07;4.47;;;;;;;21.84;42.21;95984.88;5024590;28;20049;-64
2022/10/29 03:21:09;;;;;;;6.55;4.63;;;;;;;21.82;42.37;95982.63;5005833;28;20570;-64
2022/10/29 03:23:34;;;;;;;5.70;4.57;;;;;;;21.57;42.42;95944.50;5023943;28;20045;-63
2022/10/29 03:26:00;;;;;;;6.80;4.88;;;;;;;20.76;42.78;95814.50;4988316;28;20049;-63
2022/10/29 03:28:29;;;;;;;5.90;4.25;;;;;;;21.83;42.32;95977.94;5021750;28;20033;-64
2022/10/29 03:30:55;;;;;;;7.03;4.60;;;;;;;21.64;42.47;95961.16;5022632;28;20053;-66
2022/10/29 03:33:21;;;;;;;6.00;4.32;;;;;;;21.79;42.19;95966.53;4989350;28;20522;-63
2022/10/29 03:35:46;;;;;;;8.20;4.70;;;;;;;21.79;42.51;95977.41;5024134;28;20105;-63
2022/10/29 03:38:12;;;;;;;6.82;4.43;;;;;;;21.80;42.46;95979.63;5024035;28;20057;-61
2022/10/29 03:40:37;;;;;;;5.30;4.05;;;;;;;21.78;42.19;95965.00;5006528;28;20695;-65
2022/10/29 03:43:03;;;;;;;5.88;4.38;;;;;;;21.78;42.40;95962.28;5024340;28;20446;-65
2022/10/29 03:45:28;;;;;;;5.75;3.95;;;;;;;19.28;42.16;95618.19;5006848;28;20462;-65
2022/10/29 03:47:54;;;;;;;5.93;4.38;;;;;;;20.31;42.27;95743.72;5024143;28;20051;-64
2022/10/29 03:50:20;;;;;;;5.25;4.18;;;;;;;21.77;42.60;95958.09;5023969;28;20136;-63
2022/10/29 03:52:45;;;;;;;6.40;4.63;;;;;;;21.76;42.39;95989.97;5006989;28;20048;-65
2022/10/29 03:55:11;;;;;;;5.60;4.30;;;;;;;21.16;42.50;95883.16;5009545;28;20021;-64
2022/10/29 03:57:36;;;;;;;6.90;4.40;;;;;;;21.75;42.30;95964.00;5010106;28;20045;-63
2022/10/29 04:00:03;;;;;;;5.25;3.92;;;;;;;21.46;42.39;95922.59;5010202;28;20041;-66
2022/10/29 04:02:29;;;;;;;6.28;4.10;;;;;;;21.76;42.31;95962.03;4993739;28;20529;-65
2022/10/29 04:04:54;;;;;;;6.28;4.47;;;;;;;21.35;42.23;95905.41;5009373;28;20052;-65
2022/10/29 04:07:20;;;;;;;5.75;4.15;;;;;;;21.75;42.48;95971.41;5027453;28;20033;-64
2022/10/29 04:09:45;;;;;;;5.45;4.30;;;;;;;21.74;42.35;95964.50;5027762;28;20084;-64
2022/10/29 04:12:10;;;;;;;5.70;3.95;;;;;;;21.75;42.60;95965.97;5026813;28;20029;-64
2022/10/29 04:14:36;;;;;;;5.15;3.80;;;;;;;21.74;42.58;95967.94;5009454;28;20045;-62
2022/10/29 04:17:01;;;;;;;5.63;3.97;;;;;;;21.49;42.25;95929.81;5028396;28;20460;-63
2022/10/29 04:19:27;;;;;;;5.82;4.28;;;;;;;21.62;42.64;95962.84;5029327;28;20120;-65
2022/10/29 04:21:52;;;;;;;6.75;3.97;;;;;;;20.87;42.26;95843.75;5026278;28;20126;-64
2022/10/29 04:24:18;;;;;;;6.05;3.90;;;;;;;21.73;42.36;95982.00;5009080;28;20033;-63
2022/10/29 04:26:43;;;;;;;5.93;4.10;;;;;;;21.73;42.46;95987.44;5009119;28;20045;-63
2022/10/29 04:29:09;;;;;;;5.60;3.72;;;;;;;20.30;42.36;95774.81;5026841;28;20568;-64
2022/10/29 04:31:35;;;;;;;4.97;3.55;;;;;;;21.72;42.21;95977.78;5025965;28;20040;-65
2022/10/29 04:34:01;;;;;;;6.97;4.47;;;;;;;21.72;42.21;95988.66;4992963;28;20172;-65
2022/10/29 04:36:26;;;;;;;5.25;4.03;;;;;;;21.79;42.20;95988.28;5026690;28;20049;-65
2022/10/29 04:38:51;;;;;;;5.85;3.80;;;;;;;21.77;42.30;95986.03;5026225;28;20493;-65
2022/10/29 04:41:17;;;;;;;5.28;3.75;;;;;;;21.82;42.62;95987.31;5024205;28;20042;-65
2022/10/29 04:43:42;;;;;;;5.70;3.75;;;;;;;21.56;42.50;95934.84;5024358;28;20434;-63
2022/10/29 04:46:08;;;;;;;5.40;3.63;;;;;;;21.84;42.61;96006.63;5026618;28;20474;-64
2022/10/29 04:48:34;;;;;;;5.30;3.70;;;;;;;21.82;42.75;95981.88;5024511;28;20651;-65
2022/10/29 04:50:59;;;;;;;6.03;3.75;;;;;;;21.90;43.17;96002.00;5005490;28;20084;-63
2022/10/29 04:53:25;;;;;;;6.10;3.90;;;;;;;21.91;43.99;95989.91;5024712;28;20052;-62
2022/10/29 04:55:50;;;;;;;6.68;3.80;;;;;;;21.64;45.06;95950.28;5025311;28;20050;-63
2022/10/29 04:58:17;;;;;;;10.70;4.13;;;;;;;22.02;45.99;96035.06;5025665;28;20052;-63
2022/10/29 05:00:42;;;;;;;7.65;4.18;;;;;;;22.09;45.93;95996.59;5006927;28;20041;-66
2022/10/29 05:03:08;;;;;;;9.40;4.20;;;;;;;21.55;46.90;95952.38;5017630;28;20061;-64
2022/10/29 05:05:37;;;;;;;7.35;3.45;;;;;;;22.04;47.41;95983.66;5025021;28;20132;-64
2022/10/29 05:08:03;;;;;;;7.30;4.07;;;;;;;22.09;46.64;95985.69;4992341;28;20065;-63
2022/10/29 05:10:30;;;;;;;7.15;4.20;;;;;;;21.94;46.02;95968.72;5007066;28;20678;-66
2022/10/29 05:13:03;;;;;;;7.90;4.47;;;;;;;20.70;45.33;95764.03;5023267;28;20387;-65
2022/10/29 05:15:29;;;;;;;8.38;4.00;;;;;;;22.17;45.37;95986.78;4998375;28;20045;-66
2022/10/29 05:17:55;;;;;;;6.63;3.80;;;;;;;22.23;44.82;95990.34;5012897;28;20052;-69
2022/10/29 05:20:21;;;;;;;6.43;3.63;;;;;;;22.43;44.42;95998.47;5009189;28;20085;-65
2022/10/29 05:22:46;;;;;;;6.72;3.70;;;;;;;22.15;44.43;95959.31;4991990;28;20041;-68
2022/10/29 05:25:11;;;;;;;5.72;3.53;;;;;;;22.36;44.63;95993.47;5009823;28;20040;-66
2022/10/29 05:27:37;;;;;;;6.72;3.30;;;;;;;22.42;44.04;96024.19;5024475;28;20115;-67
2022/10/29 05:30:03;;;;;;;6.00;3.88;;;;;;;22.27;43.68;95958.22;5026262;28;20053;-71
2022/10/29 05:32:28;;;;;;;6.10;3.70;;;;;;;22.42;44.00;95999.72;5026612;28;20046;-66
2022/10/29 05:34:54;;;;;;;5.88;3.90;;;;;;;22.67;43.43;95998.97;5025204;28;20057;-65
2022/10/29 05:37:19;;;;;;;7.22;3.83;;;;;;;21.93;43.39;95893.03;5026403;28;20103;-66
2022/10/29 05:39:45;;;;;;;7.40;3.85;;;;;;;22.50;43.83;96025.28;4992487;28;20136;-67
2022/10/29 05:42:10;;;;;;;7.10;3.58;;;;;;;22.86;43.12;96002.88;5025448;28;20072;-64
2022/10/29 05:44:35;;;;;;;6.22;3.60;;;;;;;22.78;42.61;96004.50;5026052;28;20053;-63
2022/10/29 05:47:01;;;;;;;5.45;3.78;;;;;;;22.85;42.78;96006.81;5027532;28;20092;-66
2022/10/29 05:49:26;;;;;;;6.10;3.72;;;;;;;22.74;42.96;96023.03;5011795;28;20041;-65
2022/10/29 05:51:52;;;;;;;5.00;3.55;;;;;;;22.66;42.93;96021.97;5030049;28;20136;-65
2022/10/29 05:54:17;;;;;;;6.10;3.30;;;;;;;22.60;42.63;96012.97;5030175;28;20045;-63
2022/10/29 05:56:43;;;;;;;6.50;3.60;;;;;;;22.30;42.86;95978.28;5032471;28;20056;-65
2022/10/29 05:59:08;;;;;;;5.35;3.60;;;;;;;22.27;42.91;95969.13;5029239;28;20048;-64
2022/10/29 06:01:34;;;;;;;4.63;3.35;;;;;;;21.06;42.58;95765.03;5026021;28;20041;-66
2022/10/29 06:04:00;;;;;;;5.82;3.38;;;;;;;22.65;42.38;96017.75;4991464;28;20478;-64
2022/10/29 06:06:26;;;;;;;6.45;3.42;;;;;;;22.66;42.28;96016.50;5023892;28;20064;-62
2022/10/29 06:08:51;;;;;;;6.32;3.50;;;;;;;22.70;42.35;96014.34;5007785;28;20108;-65
2022/10/29 06:11:16;;;;;;;4.97;3.50;;;;;;;22.47;42.31;95977.25;5007426;28;20549;-68
2022/10/29 06:13:42;;;;;;;4.78;3.22;;;;;;;21.96;42.12;95906.41;5026069;28;20457;-65
2022/10/29 06:16:07;;;;;;;6.45;3.40;;;;;;;22.92;41.35;96018.75;5025712;28;20044;-67
2022/10/29 06:18:33;;;;;;;4.57;3.65;;;;;;;22.81;41.51;96017.16;5025203;28;20053;-67
2022/10/29 06:20:59;;;;;;;5.03;3.40;;;;;;;22.95;41.30;96023.28;4990612;28;20042;-65
2022/10/29 06:23:25;;;;;;;6.55;3.28;;;;;;;21.29;41.47;95766.78;5024540;28;20103;-65
2022/10/29 06:25:50;;;;;;;6.07;3.40;;;;;;;22.95;41.32;96027.97;5006151;28;20116;-64
2022/10/29 06:28:17;;;;;;;5.82;3.80;;;;;;;22.03;41.64;95889.69;5025668;28;20552;-64
2022/10/29 06:30:47;;;;;;;6.00;3.58;;;;;;;22.89;41.42;96019.72;5024796;28;20038;-66
2022/10/29 06:33:13;;;;;;;;;;;;;;;22.94;41.83;96027.25;5007605;28;20057;-65
2022/10/29 06:35:38;;;;;;;7.80;3.90;;;;;;;23.13;41.32;96022.19;5022564;28;20392;-66
2022/10/29 06:38:04;;;;;;;12.15;4.25;;;;;;;23.36;40.79;96023.84;5006740;28;20072;-67
2022/10/29 06:40:29;;;;;;;16.17;4.45;;;;;;;23.44;40.78;96014.75;5024465;28;20048;-65
2022/10/29 06:43:05;;;;;;;13.07;4.30;;;;;;;23.14;41.67;96018.97;5025474;28;20033;-66
2022/10/29 06:45:30;;;;;;;14.20;4.75;;;;;;;23.10;41.60;96023.91;5019877;28;20065;-64
2022/10/29 06:47:56;;;;;;;17.00;5.43;;;;;;;23.60;39.31;96027.75;5024560;28;20045;-66
2022/10/29 06:50:21;;;;;;;11.27;5.47;;;;;;;23.70;38.96;96018.16;5005995;28;20046;-65
2022/10/29 06:52:54;;;;;;;11.70;5.45;;;;;;;23.75;38.42;96022.91;5008405;28;20041;-68
2022/10/29 06:55:20;;;;;;;15.52;5.68;;;;;;;23.50;38.18;96029.19;5015801;28;20056;-65
2022/10/29 06:57:45;;;;;;;11.52;6.10;;;;;;;23.32;38.65;95994.09;5006915;28;20033;-66
2022/10/29 07:00:11;;;;;;;15.95;6.70;;;;;;;23.48;38.78;95979.81;5024119;28;20037;-66
2022/10/29 07:02:36;;;;;;;11.93;6.38;;;;;;;23.86;38.18;96024.47;5010751;28;20140;-66
2022/10/29 07:05:02;;;;;;;11.82;6.82;;;;;;;23.92;38.27;96032.69;5010072;28;20608;-67
2022/10/29 07:07:28;;;;;;;14.32;7.00;;;;;;;23.91;38.27;96025.72;5025574;28;20120;-68
2022/10/29 07:09:53;;;;;;;11.60;7.15;;;;;;;22.88;37.67;95869.66;5005344;28;20116;-64
2022/10/29 07:12:18;;;;;;;11.82;7.35;;;;;;;23.04;38.47;95976.78;5023796;28;20053;-66
2022/10/29 07:14:44;;;;;;;12.93;7.20;;;;;;;22.47;37.17;95835.72;5009085;28;20545;-65
2022/10/29 07:17:09;;;;;;;13.80;7.05;;;;;;;20.61;37.31;95582.34;5022755;28;20046;-65
2022/10/29 07:19:35;;;;;;;12.77;7.10;;;;;;;23.77;37.39;96032.09;5004474;28;20048;-65
2022/10/29 07:22:00;;;;;;;11.60;6.78;;;;;;;23.86;36.65;96039.34;4989812;28;20029;-63
2022/10/29 07:24:26;;;;;;;12.65;7.50;;;;;;;23.77;36.57;96036.81;4989774;28;20092;-65
2022/10/29 07:26:51;;;;;;;12.50;6.97;;;;;;;23.52;36.62;96026.69;5022623;28;20096;-65
2022/10/29 07:29:16;;;;;;;13.25;7.30;;;;;;;23.55;37.14;96042.09;5029464;28;20041;-62
2022/10/29 07:31:42;;;;;;;14.43;7.03;;;;;;;23.70;36.31;96037.25;5029005;28;20049;-67
2022/10/29 07:34:07;;;;;;;13.15;6.65;;;;;;;22.93;37.23;95965.81;5029122;28;20760;-63
2022/10/29 07:36:33;;;;;;;11.32;6.82;;;;;;;23.69;36.08;96033.03;5028191;28;20159;-65
2022/10/29 07:38:59;;;;;;;12.50;7.03;;;;;;;23.68;36.46;96034.28;5028728;28;20060;-66
2022/10/29 07:41:25;;;;;;;12.43;6.45;;;;;;;23.55;36.75;96042.81;5028753;28;20048;-65
2022/10/29 07:43:50;;;;;;;9.90;7.18;;;;;;;23.67;36.31;96032.78;5023828;28;20041;-64
2022/10/29 07:46:15;;;;;;;10.05;6.38;;;;;;;23.48;36.36;96026.16;5029329;28;20797;-65
2022/10/29 07:48:41;;;;;;;12.13;7.47;;;;;;;23.27;36.08;95972.97;5029016;28;20046;-65
2022/10/29 07:51:06;;;;;;;12.23;6.97;;;;;;;23.49;36.08;96005.84;4994381;28;20049;-66
2022/10/29 07:53:32;;;;;;;9.43;7.25;;;;;;;21.12;36.36;95670.78;5010678;28;20041;-66
2022/10/29 07:55:57;;;;;;;13.77;7.40;;;;;;;23.15;36.83;96031.38;5026726;28;20076;-64
2022/10/29 07:58:23;;;;;;;19.08;7.32;;;;;;;23.29;36.00;95980.69;5027578;28;20064;-65
2022/10/29 08:00:49;;;;;;;17.25;7.78;;;;;;;23.41;36.16;96026.63;5008000;28;20115;-65
2022/10/29 08:03:14;;;;;;;18.30;7.45;;;;;;;23.53;36.29;96025.47;5027297;28;20437;-65
2022/10/29 08:05:40;;;;;;;21.15;8.40;;;;;;;23.42;36.25;96028.09;5008317;28;20049;-65
2022/10/29 08:08:05;;;;;;;18.05;8.23;;;;;;;22.46;36.48;95855.97;5025291;28;20061;-65
2022/10/29 08:10:31;;;;;;;16.63;7.60;;;;;;;23.45;36.73;96016.22;5027651;28;20033;-65
2022/10/29 08:12:58;;;;;;;15.95;7.88;;;;;;;23.76;36.27;96018.94;4977345;28;20128;-66
2022/10/29 08:15:24;;;;;;;18.30;7.70;;;;;;;23.59;37.57;96042.63;5007056;28;20168;-65
2022/10/29 08:17:49;;;;;;;16.15;7.75;;;;;;;23.57;37.54;96034.16;5026976;28;20065;-66
2022/10/29 08:20:15;;;;;;;13.68;6.97;;;;;;;23.54;36.27;95991.50;5009670;28;20041;-66
2022/10/29 08:22:40;;;;;;;11.43;7.10;;;;;;;23.64;36.52;96006.47;5027072;28;20104;-65
2022/10/29 08:25:06;;;;;;;16.25;7.65;;;;;;;23.65;36.82;96002.53;5028153;28;20034;-64
2022/10/29 08:27:32;;;;;;;13.20;7.60;;;;;;;23.66;37.89;96047.63;5026611;28;20045;-66
2022/10/29 08:29:57;;;;;;;12.73;7.75;;;;;;;23.39;39.72;95999.84;5027646;28;20045;-69
2022/10/29 08:32:22;;;;;;;14.13;7.28;;;;;;;23.06;38.90;95990.69;5026474;28;20041;-65
2022/10/29 08:34:48;;;;;;;13.32;7.22;;;;;;;23.47;37.75;95991.97;5027860;28;20033;-66
2022/10/29 08:37:13;;;;;;;14.57;7.85;;;;;;;23.63;37.85;95999.50;5027033;28;20100;-65
2022/10/29 08:39:39;;;;;;;12.95;7.72;;;;;;;23.37;38.16;96031.53;5027183;28;20056;-66
2022/10/29 08:42:26;;;;;;;13.13;7.70;;;;;;;23.39;38.26;96023.63;5026662;28;20049;-62
2022/10/29 08:44:58;;;;;;;13.77;7.35;;;;;;;23.70;37.36;95988.16;5017192;28;20045;-63
2022/10/29 08:47:23;;;;;;;12.68;7.45;;;;;;;23.54;37.85;95988.78;5008223;28;20053;-63
2022/10/29 08:50:02;;;;;;;13.95;7.53;;;;;;;21.98;37.69;95751.66;5008286;28;20053;-65
2022/10/29 08:52:30;;;;;;;13.88;7.85;;;;;;;22.02;38.07;95784.84;5025878;28;20041;-66
2022/10/29 08:55:18;;;;;;;16.83;7.43;;;;;;;23.50;38.14;95974.66;4976824;28;20436;-65
2022/10/29 08:57:52;;;;;;;12.65;6.70;;;;;;;23.32;37.51;95931.41;5026386;28;20452;-63
2022/10/29 09:00:22;;;;;;;12.55;7.13;;;;;;;23.08;37.21;95895.59;4979846;28;20063;-65
2022/10/29 09:02:51;;;;;;;;;;;;;;;23.48;37.18;95971.63;5008756;28;20127;-62
2022/10/29 09:05:17;;;;;;;11.32;6.70;;;;;;;23.30;37.42;95974.75;5026291;28;19921;-64
2022/10/29 09:07:57;;;;;;;12.30;6.47;;;;;;;23.50;37.47;95975.38;4991278;28;20160;-64
2022/10/29 09:10:27;;;;;;;11.60;6.88;;;;;;;23.49;37.37;95978.59;5009044;28;20493;-61
2022/10/29 09:13:18;;;;;;;11.52;6.93;;;;;;;23.61;37.03;95974.69;4992171;28;20714;-66
2022/10/29 09:16:08;;;;;;;12.88;6.65;;;;;;;23.58;36.82;95975.69;5025633;28;20375;-64
2022/10/29 09:18:55;;;;;;;11.07;6.75;;;;;;;23.52;36.63;95977.63;5023329;28;20533;-65
2022/10/29 09:21:24;;;;;;;10.15;6.50;;;;;;;22.12;36.68;95756.25;5025917;28;20045;-63
2022/10/29 09:24:14;;;;;;;11.18;6.63;;;;;;;23.68;36.24;95966.09;5007718;28;20064;-63
2022/10/29 09:26:58;;;;;;;13.07;6.55;;;;;;;23.66;36.26;95957.66;4992270;28;20049;-64
2022/10/29 09:29:32;;;;;;;12.25;6.47;;;;;;;23.28;36.92;95919.97;5023125;28;20140;-63
2022/10/29 09:32:02;;;;;;;13.57;6.45;;;;;;;23.84;36.17;95959.97;5018938;28;20131;-65
2022/10/29 09:34:29;;;;;;;11.93;7.03;;;;;;;23.94;35.62;95949.09;5005115;28;20520;-63
2022/10/29 09:36:55;;;;;;;12.90;7.70;;;;;;;24.24;34.92;95955.66;5006709;28;20053;-64
2022/10/29 09:39:31;;;;;;;10.85;7.07;;;;;;;24.01;35.24;95954.09;5023281;28;20057;-64
2022/10/29 09:41:56;;;;;;;11.73;6.80;;;;;;;23.86;35.61;95957.50;4974772;28;20107;-63
2022/10/29 09:44:28;;;;;;;13.32;7.20;;;;;;;24.03;35.03;95946.16;5007279;28;20072;-64
2022/10/29 09:47:03;;;;;;;12.57;6.22;;;;;;;22.80;34.42;95722.31;5003737;28;20044;-63
2022/10/29 09:49:44;;;;;;;12.20;6.35;;;;;;;24.53;33.84;95949.81;5021578;28;20113;-62
2022/10/29 09:52:15;;;;;;;12.43;6.65;;;;;;;24.46;33.70;95933.91;5024401;28;20038;-63
2022/10/29 09:54:41;;;;;;;13.00;6.10;;;;;;;24.51;33.86;95938.63;4989781;28;20053;-64
2022/10/29 09:57:06;;;;;;;8.90;5.95;;;;;;;24.49;33.96;95927.44;5020772;28;20049;-65
2022/10/29 09:59:43;;;;;;;9.93;6.25;;;;;;;24.58;33.35;95951.78;5004116;28;20046;-62
2022/10/29 10:02:21;;;;;;;13.00;6.65;;;;;;;24.62;33.71;95919.50;4988501;28;20093;-65
2022/10/29 10:04:47;;;;;;;10.18;6.30;;;;;;;24.87;33.57;95919.28;5009758;28;20072;-65
2022/10/29 10:07:16;;;;;;;10.82;5.90;;;;;;;24.07;33.39;95777.47;5022316;28;20037;-62
2022/10/29 10:09:51;;;;;;;9.65;5.97;;;;;;;24.49;35.07;95902.88;4985430;28;20125;-62
2022/10/29 10:12:16;;;;;;;9.73;5.18;;;;;;;24.48;35.93;95904.88;5018549;28;20140;-64
2022/10/29 10:14:42;;;;;;;8.32;5.07;;;;;;;24.41;35.78;95877.31;5005189;28;20041;-64
2022/10/29 10:17:07;;;;;;;8.35;5.70;;;;;;;24.64;35.73;95889.72;4986556;28;20433;-62
2022/10/29 10:19:33;;;;;;;9.85;4.93;;;;;;;24.57;35.89;95884.75;5004918;28;20056;-63
2022/10/29 10:22:03;;;;;;;9.02;4.75;;;;;;;24.36;36.37;95842.53;5009328;28;20033;-61
2022/10/29 10:24:30;;;;;;;7.80;4.68;;;;;;;24.70;35.89;95876.81;5006611;28;20057;-63
2022/10/29 10:26:56;;;;;;;9.77;5.20;;;;;;;24.73;35.84;95897.69;4996273;28;20045;-62
2022/10/29 10:29:22;;;;;;;7.78;4.53;;;;;;;23.46;36.22;95674.25;5024988;28;20418;-63
2022/10/29 10:31:48;;;;;;;8.82;4.60;;;;;;;24.72;35.99;95860.66;5023836;28;20128;-65
2022/10/29 10:34:14;;;;;;;9.45;4.65;;;;;;;24.72;36.58;95860.66;4990988;28;20036;-63
2022/10/29 10:36:42;;;;;;;7.18;4.85;;;;;;;24.80;36.48;95905.34;5024124;28;20049;-64
2022/10/29 10:39:19;;;;;;;8.52;4.20;;;;;;;24.80;35.97;95837.06;5007075;28;20053;-65
2022/10/29 10:41:45;;;;;;;7.25;4.38;;;;;;;23.86;35.77;95680.75;4992011;28;20089;-66
2022/10/29 10:44:10;;;;;;;6.70;4.22;;;;;;;25.16;35.75;95845.72;5006644;28;20049;-63
2022/10/29 10:46:40;;;;;;;7.10;4.25;;;;;;;25.10;36.02;95845.00;5005718;28;20458;-63
2022/10/29 10:49:16;;;;;;;;;;;;;;;25.05;35.96;95843.03;5006665;28;20044;-65
2022/10/29 10:51:48;;;;;;;7.15;4.10;;;;;;;24.83;35.91;95815.69;5024584;28;20012;-65
2022/10/29 10:54:37;;;;;;;6.57;4.28;;;;;;;25.12;36.03;95837.03;4989662;28;20080;-63
2022/10/29 10:57:09;;;;;;;7.82;4.50;;;;;;;23.53;35.78;95603.63;5005438;28;20050;-62
2022/10/29 10:59:56;;;;;;;5.47;3.90;;;;;;;25.25;35.80;95829.06;5022120;28;20049;-63
2022/10/29 11:02:58;;;;;;;5.97;3.83;;;;;;;25.35;36.04;95816.56;5021732;28;20079;-64
2022/10/29 11:05:34;;;;;;;7.63;3.92;;;;;;;25.29;36.57;95807.69;5006643;28;20038;-61
2022/10/29 11:08:19;;;;;;;6.20;4.00;;;;;;;25.34;36.55;95815.09;4990828;28;20045;-63
2022/10/29 11:10:51;;;;;;;8.60;4.72;;;;;;;25.42;36.84;95805.84;5005807;28;20486;-63
2022/10/29 11:13:21;;;;;;;18.25;11.32;;;;;;;25.44;37.84;95806.13;5007431;28;20117;-63
2022/10/29 11:16:11;;;;;;;22.20;11.90;;;;;;;25.42;38.33;95788.72;4983422;28;20076;-62
2022/10/29 11:18:44;;;;;;;28.38;13.70;;;;;;;25.49;38.93;95794.41;5016016;28;20112;-61
2022/10/29 11:21:29;;;;;;;26.85;15.02;;;;;;;25.76;38.88;95790.81;4990605;28;20065;-63
2022/10/29 11:24:04;;;;;;;31.40;16.45;;;;;;;25.68;39.26;95783.63;4988425;28;20037;-62
2022/10/29 11:26:48;;;;;;;29.85;14.70;;;;;;;25.60;38.95;95777.19;5020625;28;20516;-63
2022/10/29 11:29:15;;;;;;;29.92;14.93;;;;;;;25.74;39.02;95776.91;5009620;28;20262;-63
2022/10/29 11:31:46;;;;;;;26.95;13.93;;;;;;;25.89;38.11;95772.56;4989133;28;20132;-62
2022/10/29 11:34:23;;;;;;;29.60;17.08;;;;;;;25.92;38.38;95782.50;5022613;28;20037;-62
2022/10/29 11:37:32;;;;;;;26.77;16.05;;;;;;;25.87;38.81;95763.38;5005572;28;20048;-62
2022/10/29 11:40:02;;;;;;;30.05;14.98;;;;;;;25.87;38.34;95758.66;4991749;28;20045;-62